createdAt,value
2023-03-01T00:01:09.257Z,100889.28
2023-03-01T00:03:37.879Z,100890.50
2023-03-01T00:06:08.305Z,100887.34
2023-03-01T00:08:36.145Z,100881.41
2023-03-01T00:11:06.054Z,100885.69
2023-03-01T00:13:34.016Z,100880.53
2023-03-01T00:16:04.057Z,100876.34
2023-03-01T00:18:31.630Z,100881.13
2023-03-01T00:21:00.065Z,100881.13
2023-03-01T00:23:29.670Z,100876.97
2023-03-01T00:25:57.411Z,100879.28
2023-03-01T00:28:24.981Z,100884.38
2023-03-01T00:30:52.631Z,100881.22
2023-03-01T00:33:20.382Z,100882.50
2023-03-01T00:35:48.976Z,100882.63
2023-03-01T00:38:16.593Z,100875.47
2023-03-01T00:40:45.576Z,100877.91
2023-03-01T00:43:13.224Z,100878.06
2023-03-01T00:45:40.822Z,100874.28
2023-03-01T00:48:08.491Z,100875.56
2023-03-01T00:50:36.047Z,100882.94
2023-03-01T00:53:03.854Z,100876.34
2023-03-01T00:55:31.464Z,100876.09
2023-03-01T00:58:00.374Z,100874.59
2023-03-01T01:00:28.731Z,100879.78
2023-03-01T01:02:56.938Z,100876.38
2023-03-01T01:05:24.491Z,100871.34
2023-03-01T01:07:52.071Z,100876.13
2023-03-01T01:10:19.914Z,100871.34
2023-03-01T01:12:47.541Z,100871.34
2023-03-01T01:15:17.491Z,100871.56
2023-03-01T01:17:45.588Z,100869.56
2023-03-01T01:20:14.240Z,100864.38
2023-03-01T01:22:41.857Z,100871.56
2023-03-01T01:25:10.402Z,100877.78
2023-03-01T01:27:38.119Z,100870.31
2023-03-01T01:30:07.402Z,100865.25
2023-03-01T01:32:36.298Z,100864.53
2023-03-01T01:35:03.999Z,100864.00
2023-03-01T01:37:32.921Z,100856.94
2023-03-01T01:40:01.384Z,100850.63
2023-03-01T01:42:29.505Z,100854.91
2023-03-01T01:45:27.759Z,100845.03
2023-03-01T01:48:00.882Z,100837.44
2023-03-01T01:50:34.415Z,100842.50
2023-03-01T01:53:02.001Z,100837.22
2023-03-01T01:55:29.827Z,100835.19
2023-03-01T01:58:01.830Z,100824.28
2023-03-01T02:00:31.257Z,100832.66
2023-03-01T02:03:03.550Z,100825.56
2023-03-01T02:05:39.225Z,100825.56
2023-03-01T02:08:07.689Z,100819.88
2023-03-01T02:10:36.749Z,100817.22
2023-03-01T02:13:05.514Z,100815.22
2023-03-01T02:15:34.672Z,100808.63
2023-03-01T02:18:05.432Z,100805.09
2023-03-01T02:20:40.230Z,100795.59
2023-03-01T02:23:08.876Z,100790.44
2023-03-01T02:25:47.225Z,100792.69
2023-03-01T02:28:41.774Z,100783.34
2023-03-01T02:31:28.954Z,100786.50
2023-03-01T02:33:57.862Z,100776.91
2023-03-01T02:36:28.757Z,100778.78
2023-03-01T02:39:00.737Z,100772.34
2023-03-01T02:41:32.761Z,100783.09
2023-03-01T02:44:01.750Z,100779.28
2023-03-01T02:46:31.019Z,100774.28
2023-03-01T02:49:00.556Z,100781.06
2023-03-01T02:51:50.141Z,100777.13
2023-03-01T02:54:26.305Z,100761.22
2023-03-01T02:56:54.697Z,100770.94
2023-03-01T02:59:28.287Z,100769.56
2023-03-01T03:01:56.929Z,100769.94
2023-03-01T03:04:24.710Z,100774.44
2023-03-01T03:06:53.324Z,100770.63
2023-03-01T03:09:21.466Z,100765.94
2023-03-01T03:11:49.583Z,100771.38
2023-03-01T03:14:18.441Z,100769.09
2023-03-01T03:16:51.617Z,100768.81
2023-03-01T03:19:20.345Z,100775.09
2023-03-01T03:21:48.083Z,100767.28
2023-03-01T03:24:15.614Z,100767.00
2023-03-01T03:26:43.223Z,100761.56
2023-03-01T03:29:10.868Z,100756.28
2023-03-01T03:31:38.510Z,100756.00
2023-03-01T03:34:07.499Z,100763.16
2023-03-01T03:36:35.125Z,100759.63
2023-03-01T03:39:02.819Z,100754.31
2023-03-01T03:41:30.371Z,100750.50
2023-03-01T03:43:57.906Z,100744.66
2023-03-01T03:46:25.503Z,100748.56
2023-03-01T03:48:53.081Z,100739.72
2023-03-01T03:51:23.640Z,100745.34
2023-03-01T03:53:51.183Z,100738.03
2023-03-01T03:56:18.738Z,100735.44
2023-03-01T03:58:46.252Z,100729.13
2023-03-01T04:01:13.907Z,100733.00
2023-03-01T04:03:42.635Z,100722.78
2023-03-01T04:06:10.157Z,100730.22
2023-03-01T04:08:39.118Z,100730.56
2023-03-01T04:11:21.286Z,100724.47
2023-03-01T04:13:49.058Z,100727.88
2023-03-01T04:16:16.921Z,100732.31
2023-03-01T04:18:44.535Z,100728.50
2023-03-01T04:21:12.253Z,100725.47
2023-03-01T04:23:42.172Z,100730.09
2023-03-01T04:26:10.140Z,100725.94
2023-03-01T04:28:40.946Z,100721.34
2023-03-01T04:31:14.833Z,100728.38
2023-03-01T04:33:43.289Z,100733.13
2023-03-01T04:36:13.225Z,100725.56
2023-03-01T04:38:43.417Z,100726.31
2023-03-01T04:41:12.708Z,100729.19
2023-03-01T04:43:40.373Z,100720.44
2023-03-01T04:46:10.512Z,100720.44
2023-03-01T04:48:39.421Z,100729.38
2023-03-01T04:51:08.814Z,100726.72
2023-03-01T04:53:37.140Z,100722.59
2023-03-01T04:56:07.328Z,100720.94
2023-03-01T04:58:35.069Z,100723.19
2023-03-01T05:01:02.638Z,100719.50
2023-03-01T05:03:30.260Z,100730.19
2023-03-01T05:06:01.457Z,100731.41
2023-03-01T05:08:29.064Z,100730.97
2023-03-01T05:10:56.584Z,100734.84
2023-03-01T05:13:25.497Z,100733.06
2023-03-01T05:15:56.882Z,100735.47
2023-03-01T05:18:26.852Z,100729.25
2023-03-01T05:20:59.128Z,100722.75
2023-03-01T05:23:26.974Z,100727.03
2023-03-01T05:25:54.653Z,100718.84
2023-03-01T05:28:22.462Z,100725.41
2023-03-01T05:30:52.528Z,100731.03
2023-03-01T05:33:20.224Z,100732.53
2023-03-01T05:35:49.592Z,100729.72
2023-03-01T05:38:18.795Z,100727.06
2023-03-01T05:40:48.059Z,100726.94
2023-03-01T05:43:18.103Z,100716.88
2023-03-01T05:45:46.186Z,100724.13
2023-03-01T05:48:15.505Z,100722.38
2023-03-01T05:50:44.874Z,100719.56
2023-03-01T05:53:14.338Z,100718.66
2023-03-01T05:55:43.519Z,100720.03
2023-03-01T05:58:15.128Z,100720.50
2023-03-01T06:00:43.501Z,100716.97
2023-03-01T06:03:13.920Z,100720.19
2023-03-01T06:05:43.616Z,100720.19
2023-03-01T06:08:11.834Z,100723.75
2023-03-01T06:10:39.803Z,100723.47
2023-03-01T06:13:07.354Z,100728.81
2023-03-01T06:15:34.953Z,100716.31
2023-03-01T06:18:02.702Z,100722.75
2023-03-01T06:20:31.021Z,100721.25
2023-03-01T06:23:00.893Z,100725.09
2023-03-01T06:25:30.413Z,100725.72
2023-03-01T06:27:58.064Z,100723.97
2023-03-01T06:30:27.567Z,100723.34
2023-03-01T06:33:02.131Z,100722.59
2023-03-01T06:35:31.369Z,100720.38
2023-03-01T06:38:01.417Z,100730.41
2023-03-01T06:40:29.153Z,100726.53
2023-03-01T06:42:56.828Z,100721.47
2023-03-01T06:45:24.346Z,100718.38
2023-03-01T06:47:52.180Z,100713.75
2023-03-01T06:50:20.597Z,100713.69
2023-03-01T06:55:16.976Z,100716.66
2023-03-01T06:57:44.561Z,100710.34
2023-03-01T07:00:13.438Z,100714.34
2023-03-01T07:02:41.047Z,100708.41
2023-03-01T07:05:09.342Z,100709.41
2023-03-01T07:07:36.877Z,100700.78
2023-03-01T07:10:05.038Z,100702.19
2023-03-01T07:12:34.126Z,100692.91
2023-03-01T07:15:01.708Z,100690.41
2023-03-01T07:17:29.310Z,100695.16
2023-03-01T07:19:56.822Z,100695.94
2023-03-01T07:22:24.431Z,100689.66
2023-03-01T07:24:52.060Z,100679.47
2023-03-01T07:27:19.663Z,100689.69
2023-03-01T07:29:48.546Z,100694.84
2023-03-01T07:32:16.271Z,100695.38
2023-03-01T07:34:43.909Z,100685.75
2023-03-01T07:37:11.411Z,100684.22
2023-03-01T07:39:39.210Z,100686.00
2023-03-01T07:42:06.787Z,100681.50
2023-03-01T07:44:35.400Z,100673.38
2023-03-01T07:47:05.251Z,100675.81
2023-03-01T07:49:32.852Z,100679.00
2023-03-01T07:52:00.573Z,100673.91
2023-03-01T07:54:28.225Z,100672.16
2023-03-01T07:56:56.216Z,100671.66
2023-03-01T07:59:24.644Z,100667.34
2023-03-01T08:01:52.248Z,100672.38
2023-03-01T08:04:21.125Z,100671.81
2023-03-01T08:06:48.679Z,100672.69
2023-03-01T08:09:16.256Z,100666.47
2023-03-01T08:11:44.037Z,100663.13
2023-03-01T08:14:12.332Z,100663.19
2023-03-01T08:16:40.143Z,100667.56
2023-03-01T08:19:08.548Z,100660.81
2023-03-01T08:21:37.949Z,100660.59
2023-03-01T08:24:07.452Z,100657.75
2023-03-01T08:26:35.696Z,100650.81
2023-03-01T08:29:03.400Z,100648.41
2023-03-01T08:31:33.955Z,100650.22
2023-03-01T08:34:03.443Z,100653.34
2023-03-01T08:36:33.685Z,100652.25
2023-03-01T08:39:03.315Z,100651.38
2023-03-01T08:41:31.406Z,100642.59
2023-03-01T08:44:00.575Z,100646.34
2023-03-01T08:46:28.773Z,100641.19
2023-03-01T08:48:56.645Z,100638.97
2023-03-01T08:51:25.315Z,100640.84
2023-03-01T08:53:52.944Z,100633.41
2023-03-01T08:56:22.447Z,100630.19
2023-03-01T08:58:51.150Z,100626.41
2023-03-01T09:01:20.970Z,100624.56
2023-03-01T09:03:48.868Z,100618.31
2023-03-01T09:06:17.476Z,100609.59
2023-03-01T09:08:46.751Z,100611.28
2023-03-01T09:11:17.613Z,100617.75
2023-03-01T09:13:47.200Z,100615.81
2023-03-01T09:16:16.448Z,100613.66
2023-03-01T09:18:44.509Z,100617.56
2023-03-01T09:21:14.654Z,100618.31
2023-03-01T09:23:43.727Z,100619.31
2023-03-01T09:26:13.502Z,100616.78
2023-03-01T09:28:42.862Z,100624.59
2023-03-01T09:31:13.698Z,100614.41
2023-03-01T09:33:42.556Z,100610.69
2023-03-01T09:36:15.657Z,100606.19
2023-03-01T09:38:43.266Z,100599.34
2023-03-01T09:41:16.751Z,100595.91
2023-03-01T09:43:48.879Z,100591.34
2023-03-01T09:46:17.937Z,100595.00
2023-03-01T09:48:48.361Z,100592.38
2023-03-01T09:51:20.624Z,100595.69
2023-03-01T09:53:48.181Z,100582.28
2023-03-01T09:56:22.326Z,100590.00
2023-03-01T09:58:55.064Z,100577.34
2023-03-01T10:01:37.272Z,100585.63
2023-03-01T10:04:28.166Z,100572.03
2023-03-01T10:07:06.562Z,100565.09
2023-03-01T10:09:36.325Z,100577.44
2023-03-01T10:12:06.985Z,100562.06
2023-03-01T10:14:39.803Z,100570.00
2023-03-01T10:17:20.461Z,100561.66
2023-03-01T10:19:49.138Z,100560.41
2023-03-01T10:22:22.087Z,100549.69
2023-03-01T10:24:50.518Z,100544.03
2023-03-01T10:27:24.218Z,100550.97
2023-03-01T10:30:00.312Z,100549.41
2023-03-01T10:32:29.349Z,100552.63
2023-03-01T10:34:58.036Z,100542.94
2023-03-01T10:37:26.921Z,100542.13
2023-03-01T10:39:59.666Z,100537.53
2023-03-01T10:42:32.692Z,100540.09
2023-03-01T10:45:16.958Z,100536.28
2023-03-01T10:47:45.979Z,100530.53
2023-03-01T10:50:21.826Z,100528.72
2023-03-01T10:52:59.879Z,100518.31
2023-03-01T10:55:33.573Z,100523.13
2023-03-01T10:58:20.430Z,100516.31
2023-03-01T11:00:50.453Z,100516.44
2023-03-01T11:03:24.181Z,100514.81
2023-03-01T11:06:03.808Z,100513.84
2023-03-01T11:08:37.416Z,100510.25
2023-03-01T11:11:27.804Z,100501.81
2023-03-01T11:13:58.595Z,100497.09
2023-03-01T11:16:37.793Z,100505.16
2023-03-01T11:19:22.371Z,100481.28
2023-03-01T11:21:58.463Z,100485.59
2023-03-01T11:24:32.595Z,100476.47
2023-03-01T11:27:05.175Z,100467.09
2023-03-01T11:29:48.493Z,100471.59
2023-03-01T11:32:17.321Z,100470.22
2023-03-01T11:34:52.929Z,100457.00
2023-03-01T11:37:34.150Z,100457.59
2023-03-01T11:40:15.585Z,100441.25
2023-03-01T11:42:53.911Z,100431.69
2023-03-01T11:45:25.050Z,100426.00
2023-03-01T11:48:03.214Z,100431.25
2023-03-01T11:50:41.650Z,100432.34
2023-03-01T11:53:28.229Z,100428.66
2023-03-01T11:56:05.648Z,100419.69
2023-03-01T11:58:54.984Z,100414.72
2023-03-01T12:01:41.776Z,100409.06
2023-03-01T12:04:37.702Z,100401.13
2023-03-01T12:07:14.530Z,100412.81
2023-03-01T12:09:54.041Z,100396.38
2023-03-01T12:12:45.064Z,100395.25
2023-03-01T12:15:32.816Z,100398.41
2023-03-01T12:18:18.790Z,100395.50
2023-03-01T12:20:58.805Z,100384.53
2023-03-01T12:23:58.465Z,100390.59
2023-03-01T12:26:33.105Z,100370.56
2023-03-01T12:29:21.963Z,100374.13
2023-03-01T12:32:03.885Z,100375.50
2023-03-01T12:34:50.514Z,100363.22
2023-03-01T12:37:26.696Z,100368.06
2023-03-01T12:40:13.534Z,100360.19
2023-03-01T12:42:52.871Z,100359.75
2023-03-01T12:45:42.469Z,100360.69
2023-03-01T12:48:29.009Z,100357.84
2023-03-01T12:51:02.267Z,100350.06
2023-03-01T12:53:34.347Z,100329.41
2023-03-01T12:56:07.342Z,100332.97
2023-03-01T12:58:49.782Z,100338.69
2023-03-01T13:01:41.721Z,100332.09
2023-03-01T13:04:19.336Z,100331.97
2023-03-01T13:06:57.344Z,100331.34
2023-03-01T13:09:32.159Z,100327.28
2023-03-01T13:12:02.873Z,100329.34
2023-03-01T13:14:46.070Z,100326.50
2023-03-01T13:17:44.920Z,100319.78
2023-03-01T13:20:16.927Z,100332.75
2023-03-01T13:22:54.372Z,100312.00
2023-03-01T13:25:25.670Z,100313.56
2023-03-01T13:28:43.714Z,100289.13
2023-03-01T13:31:14.667Z,100294.00
2023-03-01T13:33:48.068Z,100296.00
2023-03-01T13:36:49.047Z,100286.84
2023-03-01T13:39:34.249Z,100294.66
2023-03-01T13:42:02.578Z,100303.50
2023-03-01T13:44:36.801Z,100291.28
2023-03-01T13:47:16.304Z,100285.84
2023-03-01T13:49:46.837Z,100273.50
2023-03-01T13:52:41.268Z,100273.75
2023-03-01T13:55:20.204Z,100275.56
2023-03-01T13:57:54.348Z,100286.25
2023-03-01T14:00:38.876Z,100274.25
2023-03-01T14:03:12.361Z,100265.63
2023-03-01T14:05:41.941Z,100268.19
2023-03-01T14:08:22.072Z,100269.97
2023-03-01T14:11:02.633Z,100269.13
2023-03-01T14:13:43.172Z,100266.47
2023-03-01T14:16:25.452Z,100268.13
2023-03-01T14:19:02.516Z,100266.44
2023-03-01T14:21:31.665Z,100268.22
2023-03-01T14:24:00.453Z,100277.78
2023-03-01T14:26:28.134Z,100262.19
2023-03-01T14:28:56.388Z,100264.75
2023-03-01T14:31:52.001Z,100260.44
2023-03-01T14:34:24.265Z,100249.13
2023-03-01T14:36:52.600Z,100243.94
2023-03-01T14:39:22.387Z,100249.16
2023-03-01T14:41:50.598Z,100252.53
2023-03-01T14:44:23.847Z,100256.09
2023-03-01T14:46:56.561Z,100246.41
2023-03-01T14:49:28.460Z,100239.44
2023-03-01T14:52:00.515Z,100253.47
2023-03-01T14:54:31.504Z,100251.53
2023-03-01T14:57:02.176Z,100254.09
2023-03-01T14:59:30.295Z,100267.22
2023-03-01T15:02:01.102Z,100262.00
2023-03-01T15:04:30.722Z,100273.69
2023-03-01T15:07:05.654Z,100262.13
2023-03-01T15:09:36.294Z,100270.38
2023-03-01T15:12:36.605Z,100266.97
2023-03-01T15:15:32.683Z,100270.69
2023-03-01T15:18:03.800Z,100274.28
2023-03-01T15:20:40.624Z,100274.31
2023-03-01T15:23:20.122Z,100276.84
2023-03-01T15:25:47.827Z,100276.75
2023-03-01T15:28:22.397Z,100287.91
2023-03-01T15:30:56.720Z,100288.41
2023-03-01T15:33:37.617Z,100283.69
2023-03-01T15:36:21.375Z,100287.47
2023-03-01T15:38:55.245Z,100285.81
2023-03-01T15:41:28.198Z,100282.66
2023-03-01T15:43:56.765Z,100291.31
2023-03-01T15:46:28.527Z,100278.78
2023-03-01T15:48:59.826Z,100276.56
2023-03-01T15:51:34.244Z,100277.44
2023-03-01T15:54:08.477Z,100287.00
2023-03-01T15:56:36.141Z,100284.38
2023-03-01T15:59:05.601Z,100288.75
2023-03-01T16:01:35.145Z,100277.56
2023-03-01T16:04:04.132Z,100285.81
2023-03-01T16:06:32.332Z,100267.13
2023-03-01T16:09:00.156Z,100273.00
2023-03-01T16:11:27.721Z,100266.69
2023-03-01T16:13:55.439Z,100273.25
2023-03-01T16:16:23.556Z,100269.69
2023-03-01T16:18:55.523Z,100280.81
2023-03-01T16:21:26.365Z,100265.44
2023-03-01T16:23:54.702Z,100254.16
2023-03-01T16:26:22.341Z,100249.34
2023-03-01T16:28:50.079Z,100243.28
2023-03-01T16:31:21.130Z,100250.09
2023-03-01T16:33:50.848Z,100242.28
2023-03-01T16:36:20.359Z,100245.69
2023-03-01T16:38:49.296Z,100246.66
2023-03-01T16:41:20.700Z,100240.13
2023-03-01T16:43:48.836Z,100237.66
2023-03-01T16:46:19.346Z,100239.56
2023-03-01T16:48:47.994Z,100247.81
2023-03-01T16:51:18.630Z,100252.25
2023-03-01T16:53:47.666Z,100260.97
2023-03-01T16:56:17.734Z,100249.00
2023-03-01T16:58:45.317Z,100252.38
2023-03-01T17:01:15.149Z,100255.34
2023-03-01T17:03:43.233Z,100253.97
2023-03-01T17:06:12.881Z,100248.16
2023-03-01T17:08:41.079Z,100257.78
2023-03-01T17:11:11.184Z,100259.16
2023-03-01T17:13:40.774Z,100251.53
2023-03-01T17:16:10.351Z,100254.81
2023-03-01T17:18:38.851Z,100254.88
2023-03-01T17:21:07.739Z,100260.25
2023-03-01T17:23:37.556Z,100260.16
2023-03-01T17:26:06.254Z,100261.91
2023-03-01T17:28:36.554Z,100260.84
2023-03-01T17:31:07.444Z,100265.44
2023-03-01T17:33:35.066Z,100274.34
2023-03-01T17:36:03.081Z,100276.31
2023-03-01T17:38:30.862Z,100279.47
2023-03-01T17:41:00.602Z,100281.72
2023-03-01T17:43:28.359Z,100278.88
2023-03-01T17:45:56.497Z,100285.31
2023-03-01T17:48:25.709Z,100284.75
2023-03-01T17:50:53.698Z,100284.31
2023-03-01T17:53:21.314Z,100289.94
2023-03-01T17:55:53.993Z,100299.94
2023-03-01T17:58:24.155Z,100304.84
2023-03-01T18:00:51.924Z,100304.25
2023-03-01T18:03:21.516Z,100291.63
2023-03-01T18:05:50.689Z,100306.75
2023-03-01T18:08:18.338Z,100304.59
2023-03-01T18:10:45.976Z,100301.50
2023-03-01T18:13:14.836Z,100304.19
2023-03-01T18:15:42.698Z,100301.25
2023-03-01T18:18:10.375Z,100300.56
2023-03-01T18:20:38.020Z,100301.75
2023-03-01T18:23:07.334Z,100302.94
2023-03-01T18:25:36.985Z,100294.63
2023-03-01T18:28:04.608Z,100297.84
2023-03-01T18:30:33.637Z,100294.00
2023-03-01T18:33:01.176Z,100293.91
2023-03-01T18:35:31.437Z,100288.25
2023-03-01T18:37:59.015Z,100282.34
2023-03-01T18:40:29.494Z,100280.84
2023-03-01T18:42:57.047Z,100283.69
2023-03-01T18:45:24.695Z,100275.69
2023-03-01T18:47:52.337Z,100280.25
2023-03-01T18:50:20.078Z,100280.75
2023-03-01T18:52:47.712Z,100278.13
2023-03-01T18:55:15.464Z,100273.69
2023-03-01T18:57:44.446Z,100275.94
2023-03-01T19:00:13.429Z,100271.91
2023-03-01T19:02:41.013Z,100273.53
2023-03-01T19:05:09.699Z,100268.63
2023-03-01T19:07:37.306Z,100268.97
2023-03-01T19:10:05.528Z,100262.22
2023-03-01T19:12:35.126Z,100269.50
2023-03-01T19:15:06.105Z,100272.13
2023-03-01T19:17:34.532Z,100267.03
2023-03-01T19:20:02.103Z,100264.00
2023-03-01T19:22:29.932Z,100264.66
2023-03-01T19:24:58.169Z,100271.72
2023-03-01T19:27:25.743Z,100267.03
2023-03-01T19:29:53.433Z,100272.53
2023-03-01T19:32:22.408Z,100270.44
2023-03-01T19:34:50.110Z,100273.56
2023-03-01T19:37:17.744Z,100273.19
2023-03-01T19:39:45.622Z,100272.03
2023-03-01T19:42:13.217Z,100276.13
2023-03-01T19:44:41.439Z,100271.56
2023-03-01T19:47:08.981Z,100266.97
2023-03-01T19:49:38.205Z,100264.47
2023-03-01T19:52:06.084Z,100264.06
2023-03-01T19:54:33.737Z,100259.09
2023-03-01T19:57:01.464Z,100272.38
2023-03-01T19:59:29.120Z,100271.91
2023-03-01T20:01:56.866Z,100275.63
2023-03-01T20:04:24.707Z,100278.56
2023-03-01T20:06:53.625Z,100271.50
2023-03-01T20:09:22.551Z,100276.19
2023-03-01T20:11:51.097Z,100271.81
2023-03-01T20:14:18.947Z,100274.06
2023-03-01T20:16:46.653Z,100271.31
2023-03-01T20:19:14.262Z,100271.00
2023-03-01T20:21:44.196Z,100272.66
2023-03-01T20:24:13.596Z,100276.00
2023-03-01T20:26:41.888Z,100277.44
2023-03-01T20:29:10.197Z,100273.84
2023-03-01T20:31:39.751Z,100268.09
2023-03-01T20:34:07.544Z,100270.75
2023-03-01T20:36:36.298Z,100268.19
2023-03-01T20:39:05.162Z,100275.44
2023-03-01T20:41:34.094Z,100275.63
2023-03-01T20:44:01.657Z,100266.47
2023-03-01T20:46:32.367Z,100265.28
2023-03-01T20:49:00.962Z,100261.19
2023-03-01T20:51:29.224Z,100269.16
2023-03-01T20:53:56.824Z,100267.59
2023-03-01T20:56:26.766Z,100272.19
2023-03-01T20:59:05.280Z,100276.66
2023-03-01T21:01:33.152Z,100275.56
2023-03-01T21:04:01.055Z,100274.06
2023-03-01T21:06:28.893Z,100269.69
2023-03-01T21:08:57.777Z,100271.91
2023-03-01T21:11:25.931Z,100264.78
2023-03-01T21:13:54.051Z,100271.41
2023-03-01T21:16:24.023Z,100255.44
2023-03-01T21:23:04.541Z,100254.59
2023-03-01T21:25:34.942Z,100248.34
2023-03-01T21:28:02.596Z,100242.97
2023-03-01T21:30:30.809Z,100246.97
2023-03-01T21:32:59.706Z,100253.13
2023-03-01T21:35:27.303Z,100250.28
2023-03-01T21:37:54.929Z,100231.22
2023-03-01T21:40:22.521Z,100234.03
2023-03-01T21:42:50.203Z,100232.63
2023-03-01T21:45:17.973Z,100233.00
2023-03-01T21:47:45.580Z,100231.88
2023-03-01T21:50:14.573Z,100241.84
2023-03-01T21:52:42.181Z,100228.84
2023-03-01T21:55:12.196Z,100232.13
2023-03-01T21:57:43.621Z,100238.56
2023-03-01T22:00:13.979Z,100232.50
2023-03-01T22:02:41.756Z,100234.84
2023-03-01T22:05:10.074Z,100240.44
2023-03-01T22:07:39.260Z,100235.47
2023-03-01T22:10:07.933Z,100229.91
2023-03-01T22:12:35.617Z,100230.66
2023-03-01T22:15:03.194Z,100235.53
2023-03-01T22:17:30.780Z,100234.63
2023-03-01T22:19:58.476Z,100230.22
2023-03-01T22:22:26.056Z,100220.97
2023-03-01T22:24:54.964Z,100222.44
2023-03-01T22:27:22.665Z,100228.06
2023-03-01T22:29:50.315Z,100221.88
2023-03-01T22:32:18.112Z,100226.06
2023-03-01T22:34:45.765Z,100229.38
2023-03-01T22:37:13.450Z,100231.81
2023-03-01T22:39:41.066Z,100228.09
2023-03-01T22:42:10.012Z,100233.13
2023-03-01T22:44:37.637Z,100227.75
2023-03-01T22:47:05.262Z,100230.28
2023-03-01T22:49:32.841Z,100228.28
2023-03-01T22:52:01.322Z,100234.22
2023-03-01T22:54:29.077Z,100235.88
2023-03-01T22:56:56.803Z,100228.06
2023-03-01T22:59:25.765Z,100233.81
2023-03-01T23:01:54.492Z,100238.00
2023-03-01T23:04:23.634Z,100235.31
2023-03-01T23:06:53.784Z,100230.06
2023-03-01T23:09:24.808Z,100223.13
2023-03-01T23:11:53.058Z,100234.03
2023-03-01T23:14:21.325Z,100236.34
2023-03-01T23:16:51.730Z,100232.03
2023-03-01T23:19:19.820Z,100235.56
2023-03-01T23:21:49.999Z,100226.78
2023-03-01T23:24:19.211Z,100229.84
2023-03-01T23:26:50.385Z,100223.69
2023-03-01T23:29:18.065Z,100222.81
2023-03-01T23:31:45.664Z,100221.03
2023-03-01T23:34:17.144Z,100220.41
2023-03-01T23:36:45.790Z,100218.41
2023-03-01T23:39:15.008Z,100221.81
2023-03-01T23:41:42.933Z,100216.00
2023-03-01T23:44:17.061Z,100207.19
2023-03-01T23:46:45.812Z,100210.50
2023-03-01T23:49:18.450Z,100215.56
2023-03-01T23:51:47.605Z,100210.25
2023-03-01T23:54:16.893Z,100218.84
2023-03-01T23:56:47.072Z,100206.53
2023-03-01T23:59:17.340Z,100205.78
